Time;durP1;ratioP1;P1;durP2;ratioP2;P2;SDS_P1;SDS_P2;PMS_P1;PMS_P2;Temp;Humidity;BMP_temperature;BMP_pressure;BME280_temperature;BME280_humidity;BME280_pressure;Samples;Min_cycle;Max_cycle;Signal;HPM_P1;HPM_P2
2021/04/03 00:03:28;;;;;;;57.70;23.00;;;;;;;;;;8295316;28;20501;-70
2021/04/03 00:07:32;;;;;;;58.35;22.15;;;;;;;;;;8292432;28;20387;-70
2021/04/03 00:11:37;;;;;;;58.47;22.05;;;;;;;;;;8293614;28;20360;-71
2021/04/03 00:15:42;;;;;;;60.03;22.48;;;;;;;;;;8293586;28;20443;-71
2021/04/03 00:19:46;;;;;;;64.10;23.58;;;;;;;;;;8293252;28;20048;-70
2021/04/03 00:23:49;;;;;;;60.10;23.17;;;;;;;;;;8293659;28;20049;-71
2021/04/03 00:27:53;;;;;;;62.80;22.98;;;;;;;;;;8293737;28;20362;-70
2021/04/03 00:31:58;;;;;;;56.33;22.48;;;;;;;;;;8293167;28;20383;-69
2021/04/03 00:36:02;;;;;;;63.33;22.92;;;;;;;;;;8293737;28;20479;-70
2021/04/03 00:40:18;;;;;;;59.88;24.58;;;;;;;;;;8291985;28;20478;-71
2021/04/03 00:44:23;;;;;;;52.08;22.17;;;;;;;;;;8292353;28;20361;-70
2021/04/03 00:48:27;;;;;;;54.30;22.08;;;;;;;;;;8294728;28;20386;-70
2021/04/03 00:52:32;;;;;;;55.63;21.70;;;;;;;;;;8292759;28;20367;-70
2021/04/03 00:56:37;;;;;;;44.45;20.85;;;;;;;;;;8307210;28;20068;-70
2021/04/03 01:00:43;;;;;;;56.50;21.35;;;;;;;;;;8290982;28;20376;-72
2021/04/03 01:04:47;;;;;;;53.85;20.83;;;;;;;;;;8286750;28;20067;-70
2021/04/03 01:08:52;;;;;;;50.42;20.95;;;;;;;;;;8294434;28;20048;-70
2021/04/03 01:13:43;;;;;;;48.80;21.05;;;;;;;;;;8290507;28;20351;-70
2021/04/03 01:18:39;;;;;;;51.55;20.13;;;;;;;;;;8290439;28;20386;-70
2021/04/03 01:23:05;;;;;;;45.92;20.13;;;;;;;;;;8293021;28;20368;-68
2021/04/03 01:27:24;;;;;;;50.90;20.92;;;;;;;;;;8308182;28;20458;-70
2021/04/03 01:31:31;;;;;;;49.78;20.83;;;;;;;;;;8273772;28;20467;-70
2021/04/03 01:35:46;;;;;;;52.75;20.50;;;;;;;;;;8291660;28;20463;-70
2021/04/03 01:39:57;;;;;;;56.63;20.63;;;;;;;;;;8274577;28;20394;-70
2021/04/03 01:44:08;;;;;;;44.28;19.88;;;;;;;;;;8289896;28;20471;-69
2021/04/03 01:48:20;;;;;;;44.72;18.42;;;;;;;;;;8301051;28;20043;-70
2021/04/03 01:52:30;;;;;;;41.83;19.50;;;;;;;;;;8306433;28;20379;-70
2021/04/03 01:56:37;;;;;;;43.67;18.77;;;;;;;;;;8289671;28;20387;-70
2021/04/03 02:00:44;;;;;;;47.72;18.45;;;;;;;;;;8324847;28;20371;-70
2021/04/03 02:04:49;;;;;;;45.53;19.55;;;;;;;;;;8324380;28;20071;-71
2021/04/03 02:08:56;;;;;;;45.85;18.40;;;;;;;;;;8321854;28;20487;-70
2021/04/03 02:13:12;;;;;;;51.33;21.55;;;;;;;;;;8322071;28;20393;-70
2021/04/03 02:17:25;;;;;;;46.83;18.38;;;;;;;;;;8325319;28;20462;-69
2021/04/03 02:21:31;;;;;;;40.58;16.42;;;;;;;;;;8305028;28;20461;-70
2021/04/03 02:25:36;;;;;;;39.42;17.67;;;;;;;;;;8321489;28;20044;-69
2021/04/03 02:29:41;;;;;;;41.75;18.00;;;;;;;;;;8324120;28;20346;-69
2021/04/03 02:33:50;;;;;;;46.10;18.67;;;;;;;;;;8322164;28;20481;-69
2021/04/03 02:37:59;;;;;;;40.88;18.08;;;;;;;;;;8323427;28;20350;-69
2021/04/03 02:42:16;;;;;;;43.83;18.63;;;;;;;;;;8322258;28;20374;-69
2021/04/03 02:46:48;;;;;;;48.42;20.02;;;;;;;;;;8305738;28;20356;-69
2021/04/03 02:50:55;;;;;;;48.25;19.75;;;;;;;;;;8313059;28;20474;-69
2021/04/03 02:55:05;;;;;;;49.58;19.85;;;;;;;;;;8320881;28;20359;-69
2021/04/03 02:59:24;;;;;;;48.85;20.10;;;;;;;;;;8321689;28;20074;-69
2021/04/03 03:03:34;;;;;;;53.92;19.50;;;;;;;;;;8323037;28;20362;-70
2021/04/03 03:07:44;;;;;;;43.58;18.83;;;;;;;;;;8321477;28;20052;-69
2021/04/03 03:11:59;;;;;;;43.75;19.08;;;;;;;;;;8320941;28;20357;-69
2021/04/03 03:16:12;;;;;;;40.30;18.33;;;;;;;;;;8321225;28;20354;-70
2021/04/03 03:20:18;;;;;;;42.38;17.70;;;;;;;;;;8321386;28;20074;-69
2021/04/03 03:24:23;;;;;;;45.83;18.90;;;;;;;;;;8323368;28;20524;-68
2021/04/03 03:28:33;;;;;;;44.27;19.07;;;;;;;;;;8320964;28;20348;-70
2021/04/03 03:32:38;;;;;;;41.60;18.48;;;;;;;;;;8326171;28;20444;-69
2021/04/03 03:36:43;;;;;;;46.30;19.48;;;;;;;;;;8310322;28;20354;-70
2021/04/03 03:40:48;;;;;;;50.97;20.17;;;;;;;;;;8327630;28;20409;-69
2021/04/03 03:44:54;;;;;;;43.40;18.88;;;;;;;;;;8312609;28;20335;-69
2021/04/03 03:49:04;;;;;;;43.97;18.95;;;;;;;;;;8326886;28;21276;-69
2021/04/03 03:53:10;;;;;;;52.15;21.38;;;;;;;;;;8328152;28;20048;-70
2021/04/03 03:57:15;;;;;;;47.90;20.00;;;;;;;;;;8326940;28;20409;-70
2021/04/03 04:01:22;;;;;;;48.15;20.80;;;;;;;;;;8327839;28;20463;-70
2021/04/03 04:05:27;;;;;;;53.58;20.27;;;;;;;;;;8324634;28;20482;-69
2021/04/03 04:09:37;;;;;;;50.17;19.48;;;;;;;;;;8325854;28;20044;-69
2021/04/03 04:13:42;;;;;;;54.65;20.60;;;;;;;;;;8327390;28;20426;-70
2021/04/03 04:17:52;;;;;;;49.17;21.02;;;;;;;;;;8325790;28;20484;-69
2021/04/03 04:21:57;;;;;;;50.30;21.13;;;;;;;;;;8292657;28;20040;-70
2021/04/03 04:26:03;;;;;;;48.63;22.58;;;;;;;;;;8324300;28;20618;-69
2021/04/03 04:30:10;;;;;;;52.80;20.27;;;;;;;;;;8324868;28;20362;-69
2021/04/03 04:34:23;;;;;;;56.25;20.92;;;;;;;;;;8326873;28;20397;-69
2021/04/03 04:38:32;;;;;;;50.00;20.88;;;;;;;;;;8324837;28;20370;-70
2021/04/03 04:42:42;;;;;;;49.15;23.08;;;;;;;;;;8324289;28;20364;-69
2021/04/03 04:46:51;;;;;;;54.92;19.65;;;;;;;;;;8325708;28;20347;-70
2021/04/03 04:50:56;;;;;;;47.88;20.58;;;;;;;;;;8323503;28;20372;-70
2021/04/03 04:55:04;;;;;;;45.88;20.40;;;;;;;;;;8322938;28;20048;-70
2021/04/03 04:59:08;;;;;;;47.40;20.75;;;;;;;;;;8307220;28;20389;-69
2021/04/03 05:03:17;;;;;;;46.22;19.60;;;;;;;;;;8324434;28;20359;-69
2021/04/03 05:07:24;;;;;;;49.67;19.85;;;;;;;;;;8323490;28;20378;-70
2021/04/03 05:11:28;;;;;;;46.50;19.27;;;;;;;;;;8325669;28;20048;-70
2021/04/03 05:15:33;;;;;;;33.78;16.95;;;;;;;;;;8324265;28;20370;-69
2021/04/03 05:19:37;;;;;;;38.05;18.55;;;;;;;;;;8325201;28;20489;-70
2021/04/03 05:23:41;;;;;;;38.17;16.80;;;;;;;;;;8327449;28;20459;-70
2021/04/03 05:27:46;;;;;;;34.05;15.10;;;;;;;;;;8323992;28;20490;-71
2021/04/03 05:31:51;;;;;;;31.17;15.73;;;;;;;;;;8324671;28;20367;-70
2021/04/03 05:35:57;;;;;;;26.65;14.27;;;;;;;;;;8325220;28;20470;-70
2021/04/03 05:40:00;;;;;;;28.92;14.05;;;;;;;;;;8323961;28;20454;-70
2021/04/03 05:44:06;;;;;;;28.45;15.70;;;;;;;;;;8325130;28;20482;-71
2021/04/03 05:48:10;;;;;;;29.38;14.60;;;;;;;;;;8324340;28;20524;-70
2021/04/03 05:52:17;;;;;;;32.70;16.45;;;;;;;;;;8322657;28;20356;-71
2021/04/03 05:56:23;;;;;;;29.23;14.98;;;;;;;;;;8305768;28;20052;-71
2021/04/03 06:00:27;;;;;;;29.45;14.55;;;;;;;;;;8323957;28;20504;-71
2021/04/03 06:04:32;;;;;;;42.25;16.02;;;;;;;;;;8323869;28;20377;-71
2021/04/03 06:08:36;;;;;;;37.00;16.00;;;;;;;;;;8322563;28;20473;-72
2021/04/03 06:12:50;;;;;;;31.10;14.93;;;;;;;;;;8322875;28;20043;-70
2021/04/03 06:16:53;;;;;;;25.40;13.60;;;;;;;;;;8321647;28;20324;-71
2021/04/03 06:21:08;;;;;;;23.58;12.75;;;;;;;;;;8321603;28;20394;-71
2021/04/03 06:25:14;;;;;;;30.42;13.27;;;;;;;;;;8322512;28;20335;-70
2021/04/03 06:29:40;;;;;;;21.15;10.55;;;;;;;;;;8322470;28;20074;-70
2021/04/03 06:33:45;;;;;;;15.65;8.85;;;;;;;;;;8323331;28;20113;-71
2021/04/03 06:37:50;;;;;;;21.27;9.80;;;;;;;;;;8324406;28;20459;-73
2021/04/03 06:41:56;;;;;;;17.77;10.52;;;;;;;;;;8322528;28;20052;-71
2021/04/03 06:46:00;;;;;;;14.38;9.02;;;;;;;;;;8322197;28;20060;-71
2021/04/03 06:50:06;;;;;;;29.65;15.48;;;;;;;;;;8323761;28;20338;-71
2021/04/03 06:54:13;;;;;;;21.48;11.02;;;;;;;;;;8305648;28;20416;-71
2021/04/03 06:58:17;;;;;;;17.13;9.68;;;;;;;;;;8322574;28;20381;-71
2021/04/03 07:02:24;;;;;;;17.95;11.32;;;;;;;;;;8322153;28;20450;-71
2021/04/03 07:06:30;;;;;;;16.02;8.98;;;;;;;;;;8325335;28;20074;-73
2021/04/03 07:10:36;;;;;;;17.55;10.75;;;;;;;;;;8327607;28;20352;-71
2021/04/03 07:14:44;;;;;;;15.95;9.43;;;;;;;;;;8328021;28;20079;-72
2021/04/03 07:18:49;;;;;;;14.90;9.50;;;;;;;;;;8328693;28;20394;-70
2021/04/03 07:23:10;;;;;;;14.88;10.50;;;;;;;;;;8328175;28;20413;-73
2021/04/03 07:27:15;;;;;;;16.73;9.40;;;;;;;;;;8327159;28;20360;-71
2021/04/03 07:31:46;;;;;;;16.25;9.63;;;;;;;;;;8326758;28;20125;-71
2021/04/03 07:36:04;;;;;;;26.73;16.75;;;;;;;;;;8327934;28;20056;-71
2021/04/03 07:40:14;;;;;;;14.07;9.45;;;;;;;;;;8328439;28;20482;-72
2021/04/03 07:44:19;;;;;;;21.15;10.95;;;;;;;;;;8327127;28;20448;-72
2021/04/03 07:48:43;;;;;;;18.65;10.65;;;;;;;;;;8326238;28;20476;-72
2021/04/03 07:52:55;;;;;;;17.75;8.95;;;;;;;;;;8326143;28;20358;-71
2021/04/03 07:57:03;;;;;;;19.67;9.35;;;;;;;;;;8326259;28;20462;-72
2021/04/03 08:01:07;;;;;;;18.20;10.97;;;;;;;;;;8325595;28;20446;-71
2021/04/03 08:05:12;;;;;;;16.75;9.77;;;;;;;;;;8326224;28;20873;-72
2021/04/03 08:09:17;;;;;;;16.20;9.05;;;;;;;;;;8309195;28;20351;-73
2021/04/03 08:13:22;;;;;;;19.70;10.35;;;;;;;;;;8327300;28;20056;-71
2021/04/03 08:17:27;;;;;;;17.63;8.80;;;;;;;;;;8325152;28;20430;-72
2021/04/03 08:21:48;;;;;;;14.30;9.18;;;;;;;;;;8326444;28;20488;-71
2021/04/03 08:25:55;;;;;;;18.70;10.13;;;;;;;;;;8326569;28;20397;-71
2021/04/03 08:30:00;;;;;;;18.33;10.32;;;;;;;;;;8326011;28;20459;-72
2021/04/03 08:34:05;;;;;;;23.52;12.48;;;;;;;;;;8326413;28;20457;-71
2021/04/03 08:38:20;;;;;;;17.60;9.70;;;;;;;;;;8323704;28;20362;-71
2021/04/03 08:42:25;;;;;;;15.43;8.45;;;;;;;;;;8328352;28;20504;-72
2021/04/03 08:46:29;;;;;;;17.20;9.60;;;;;;;;;;8325293;28;20382;-70
2021/04/03 08:50:34;;;;;;;21.30;12.32;;;;;;;;;;8324665;28;20467;-71
2021/04/03 08:54:44;;;;;;;14.65;10.35;;;;;;;;;;8325389;28;20055;-71
2021/04/03 08:58:48;;;;;;;24.38;12.75;;;;;;;;;;8307734;28;20354;-71
2021/04/03 09:02:55;;;;;;;30.75;14.45;;;;;;;;;;8324459;28;20344;-70
2021/04/03 09:07:00;;;;;;;20.33;11.30;;;;;;;;;;8323701;28;20102;-71
2021/04/03 09:11:05;;;;;;;34.63;16.38;;;;;;;;;;8324536;28;20105;-71
2021/04/03 09:15:12;;;;;;;27.15;13.75;;;;;;;;;;8305865;28;20354;-70
2021/04/03 09:19:33;;;;;;;22.40;13.27;;;;;;;;;;8324764;28;20501;-71
2021/04/03 09:23:43;;;;;;;23.25;14.32;;;;;;;;;;8321719;28;20381;-71
2021/04/03 09:28:00;;;;;;;28.00;15.55;;;;;;;;;;8317915;28;20459;-71
2021/04/03 09:32:07;;;;;;;22.98;12.52;;;;;;;;;;8323677;28;20469;-71
2021/04/03 09:36:16;;;;;;;18.35;10.52;;;;;;;;;;8324378;28;20385;-71
2021/04/03 09:40:38;;;;;;;20.23;11.40;;;;;;;;;;8326536;28;20393;-71
2021/04/03 09:44:43;;;;;;;24.00;12.32;;;;;;;;;;8324380;28;20465;-71
2021/04/03 09:48:46;;;;;;;23.95;13.57;;;;;;;;;;8323504;28;20331;-71
2021/04/03 09:52:52;;;;;;;22.40;13.52;;;;;;;;;;8323553;28;20060;-71
2021/04/03 09:56:57;;;;;;;21.80;11.90;;;;;;;;;;8290496;28;20348;-71
2021/04/03 10:01:03;;;;;;;14.50;9.20;;;;;;;;;;8323248;28;20374;-71
2021/04/03 10:05:08;;;;;;;15.93;9.27;;;;;;;;;;8322026;28;20481;-72
2021/04/03 10:09:14;;;;;;;14.38;8.82;;;;;;;;;;8322359;28;20351;-71
2021/04/03 10:13:18;;;;;;;22.38;10.43;;;;;;;;;;8322872;28;20413;-71
2021/04/03 10:17:22;;;;;;;21.33;11.77;;;;;;;;;;8325292;28;20596;-70
2021/04/03 10:21:27;;;;;;;9.13;6.13;;;;;;;;;;8321534;28;20528;-72
2021/04/03 10:25:31;;;;;;;14.02;6.65;;;;;;;;;;8322769;28;20071;-71
2021/04/03 10:29:35;;;;;;;18.08;7.90;;;;;;;;;;8323250;28;20067;-71
2021/04/03 10:33:40;;;;;;;11.95;6.57;;;;;;;;;;8323160;28;20055;-71
2021/04/03 10:37:45;;;;;;;10.65;5.50;;;;;;;;;;8323310;28;20358;-73
2021/04/03 10:41:49;;;;;;;11.23;5.95;;;;;;;;;;8327686;28;20343;-72
2021/04/03 10:45:53;;;;;;;7.38;3.55;;;;;;;;;;8330227;28;20484;-72
2021/04/03 10:49:57;;;;;;;6.80;2.90;;;;;;;;;;8329816;28;20483;-72
2021/04/03 10:54:06;;;;;;;6.40;3.65;;;;;;;;;;8328932;28;20071;-72
2021/04/03 10:58:11;;;;;;;10.93;4.30;;;;;;;;;;8329634;28;20378;-71
2021/04/03 11:02:16;;;;;;;7.22;3.35;;;;;;;;;;8326040;28;20501;-72
2021/04/03 11:06:20;;;;;;;7.50;3.60;;;;;;;;;;8327772;28;20350;-72
2021/04/03 11:10:25;;;;;;;3.78;2.60;;;;;;;;;;8329028;28;20386;-72
2021/04/03 11:14:30;;;;;;;6.07;3.05;;;;;;;;;;8328097;28;20468;-71
2021/04/03 11:18:34;;;;;;;19.95;9.35;;;;;;;;;;8329785;28;20347;-72
2021/04/03 11:22:41;;;;;;;6.57;4.07;;;;;;;;;;8327818;28;20052;-71
2021/04/03 11:26:44;;;;;;;10.68;6.63;;;;;;;;;;8310137;28;20040;-71
2021/04/03 11:30:49;;;;;;;7.20;4.45;;;;;;;;;;8325667;28;20052;-72
2021/04/03 11:34:53;;;;;;;12.07;7.68;;;;;;;;;;8329194;28;20338;-71
2021/04/03 11:38:58;;;;;;;23.48;10.43;;;;;;;;;;8326621;28;20502;-71
2021/04/03 11:43:02;;;;;;;51.67;22.77;;;;;;;;;;8326046;28;20366;-72
2021/04/03 11:47:08;;;;;;;24.10;12.32;;;;;;;;;;8326614;28;20074;-71
2021/04/03 11:51:13;;;;;;;7.85;4.95;;;;;;;;;;8325071;28;20447;-72
2021/04/03 11:55:17;;;;;;;12.68;9.55;;;;;;;;;;8325381;28;20048;-72
2021/04/03 11:59:22;;;;;;;10.10;6.68;;;;;;;;;;8326281;28;20507;-72
2021/04/03 12:03:26;;;;;;;13.20;6.95;;;;;;;;;;8327201;28;20416;-71
2021/04/03 12:07:39;;;;;;;10.48;6.72;;;;;;;;;;8327179;28;20378;-71
2021/04/03 12:11:43;;;;;;;10.70;6.38;;;;;;;;;;8310253;28;20454;-71
2021/04/03 12:15:48;;;;;;;16.23;8.00;;;;;;;;;;8325789;28;20478;-71
2021/04/03 12:19:55;;;;;;;9.57;6.53;;;;;;;;;;8328185;28;20074;-72
2021/04/03 12:24:00;;;;;;;10.00;5.85;;;;;;;;;;8327892;28;20490;-71
2021/04/03 12:28:05;;;;;;;6.25;4.95;;;;;;;;;;8326119;28;20067;-71
2021/04/03 12:32:10;;;;;;;10.88;6.32;;;;;;;;;;8326200;28;20362;-72
2021/04/03 12:36:15;;;;;;;15.57;7.43;;;;;;;;;;8324974;28;20355;-72
2021/04/03 12:40:19;;;;;;;8.88;5.80;;;;;;;;;;8323354;28;20462;-71
2021/04/03 12:44:23;;;;;;;9.40;5.45;;;;;;;;;;8325947;28;20362;-71
2021/04/03 12:48:28;;;;;;;54.20;22.60;;;;;;;;;;8325903;28;20382;-71
2021/04/03 12:52:31;;;;;;;13.25;6.35;;;;;;;;;;8325317;28;20055;-71
2021/04/03 12:56:36;;;;;;;287.33;128.90;;;;;;;;;;8324853;28;20482;-71
2021/04/03 13:00:40;;;;;;;73.25;34.67;;;;;;;;;;8325184;28;20044;-71
2021/04/03 13:04:46;;;;;;;13.00;6.07;;;;;;;;;;8324734;28;20047;-72
2021/04/03 13:08:50;;;;;;;20.33;9.73;;;;;;;;;;8324377;28;20060;-72
2021/04/03 13:12:57;;;;;;;11.75;5.75;;;;;;;;;;8325745;28;20393;-71
2021/04/03 13:17:05;;;;;;;14.65;6.63;;;;;;;;;;8325016;28;20474;-71
2021/04/03 13:21:11;;;;;;;10.45;6.18;;;;;;;;;;8322619;28;20354;-71
2021/04/03 13:25:16;;;;;;;8.48;5.13;;;;;;;;;;8324260;28;20060;-72
2021/04/03 13:29:20;;;;;;;8.85;4.88;;;;;;;;;;8323561;28;20434;-71
2021/04/03 13:33:25;;;;;;;8.07;5.18;;;;;;;;;;8324382;28;20071;-71
2021/04/03 13:37:30;;;;;;;13.55;6.22;;;;;;;;;;8323803;28;20398;-71
2021/04/03 13:41:36;;;;;;;10.82;5.03;;;;;;;;;;8323025;28;20379;-72
2021/04/03 13:45:41;;;;;;;6.65;3.70;;;;;;;;;;8323765;28;20378;-71
2021/04/03 13:49:50;;;;;;;8.70;5.40;;;;;;;;;;8323816;28;20074;-72
2021/04/03 13:53:56;;;;;;;7.78;4.03;;;;;;;;;;8324636;28;20420;-70
2021/04/03 13:58:01;;;;;;;4.45;3.05;;;;;;;;;;8323545;28;20382;-71
2021/04/03 14:02:06;;;;;;;5.80;3.15;;;;;;;;;;8323988;28;20477;-71
2021/04/03 14:06:10;;;;;;;9.98;4.75;;;;;;;;;;8324464;28;20052;-72
2021/04/03 14:10:17;;;;;;;8.93;4.65;;;;;;;;;;8323365;28;20390;-71
2021/04/03 14:14:22;;;;;;;13.35;6.45;;;;;;;;;;8320473;28;20482;-71
2021/04/03 14:18:27;;;;;;;10.57;5.03;;;;;;;;;;8321275;28;20473;-73
2021/04/03 14:22:34;;;;;;;32.03;11.85;;;;;;;;;;8322826;28;20493;-71
2021/04/03 14:26:38;;;;;;;17.67;9.40;;;;;;;;;;8322635;28;20486;-71
2021/04/03 14:30:43;;;;;;;25.90;10.40;;;;;;;;;;8322636;28;20048;-71
2021/04/03 14:34:47;;;;;;;18.00;7.25;;;;;;;;;;8324336;28;20462;-71
2021/04/03 14:38:53;;;;;;;13.02;5.28;;;;;;;;;;8323774;28;20493;-72
2021/04/03 14:42:57;;;;;;;11.88;5.60;;;;;;;;;;8322930;28;20344;-71
2021/04/03 14:47:01;;;;;;;36.15;13.50;;;;;;;;;;8323703;28;20375;-71
2021/04/03 14:51:06;;;;;;;11.82;5.68;;;;;;;;;;8321631;28;20378;-71
2021/04/03 14:55:11;;;;;;;8.70;3.83;;;;;;;;;;8321825;28;20409;-71
2021/04/03 14:59:15;;;;;;;22.52;10.32;;;;;;;;;;8322423;28;20455;-71
2021/04/03 15:03:20;;;;;;;25.00;8.25;;;;;;;;;;8322269;28;20044;-71
2021/04/03 15:07:25;;;;;;;16.35;6.43;;;;;;;;;;8322055;28;20482;-71
2021/04/03 15:11:30;;;;;;;24.73;8.70;;;;;;;;;;8320298;28;20501;-71
2021/04/03 15:15:35;;;;;;;23.80;7.13;;;;;;;;;;8322203;28;20466;-71
2021/04/03 15:19:42;;;;;;;19.17;6.00;;;;;;;;;;8304300;28;20378;-71
2021/04/03 15:23:47;;;;;;;2.95;2.17;;;;;;;;;;8322254;28;20572;-71
2021/04/03 15:27:51;;;;;;;14.27;6.55;;;;;;;;;;8326503;28;20417;-72
2021/04/03 15:31:55;;;;;;;19.88;6.03;;;;;;;;;;8328223;28;20458;-71
2021/04/03 15:36:00;;;;;;;45.53;11.43;;;;;;;;;;8326357;28;20459;-70
2021/04/03 15:40:04;;;;;;;35.75;12.93;;;;;;;;;;8327622;28;20340;-70
2021/04/03 15:44:09;;;;;;;18.48;8.27;;;;;;;;;;8274670;28;20097;-70
2021/04/03 15:48:14;;;;;;;5.03;2.85;;;;;;;;;;8325997;28;20386;-71
2021/04/03 15:52:18;;;;;;;6.68;3.47;;;;;;;;;;8327536;28;20389;-70
2021/04/03 15:56:24;;;;;;;6.80;3.22;;;;;;;;;;8326427;28;20363;-71
2021/04/03 16:00:30;;;;;;;21.95;9.18;;;;;;;;;;8325310;28;20434;-71
2021/04/03 16:04:35;;;;;;;13.30;6.60;;;;;;;;;;8325433;28;20359;-71
2021/04/03 16:08:40;;;;;;;8.10;4.07;;;;;;;;;;8327179;28;20478;-70
2021/04/03 16:12:44;;;;;;;7.70;3.80;;;;;;;;;;8326100;28;20363;-71
2021/04/03 16:16:49;;;;;;;18.52;6.57;;;;;;;;;;8326868;28;20409;-70
2021/04/03 16:20:52;;;;;;;24.63;10.00;;;;;;;;;;8325857;28;20051;-70
2021/04/03 16:24:58;;;;;;;21.92;8.57;;;;;;;;;;8325686;28;20360;-70
2021/04/03 16:29:03;;;;;;;23.55;9.40;;;;;;;;;;8324773;28;20471;-71
2021/04/03 16:33:10;;;;;;;35.33;13.55;;;;;;;;;;8325277;28;20048;-71
2021/04/03 16:37:15;;;;;;;16.45;8.13;;;;;;;;;;8325026;28;20471;-70
2021/04/03 16:41:19;;;;;;;32.33;12.82;;;;;;;;;;8325498;28;20063;-71
2021/04/03 16:45:24;;;;;;;16.02;8.65;;;;;;;;;;8325660;28;20483;-71
2021/04/03 16:49:28;;;;;;;40.60;20.88;;;;;;;;;;8326640;28;20056;-70
2021/04/03 16:53:33;;;;;;;18.67;10.10;;;;;;;;;;8324895;28;20055;-70
2021/04/03 16:57:40;;;;;;;104.13;29.10;;;;;;;;;;8328115;28;20418;-70
2021/04/03 17:01:43;;;;;;;141.40;38.25;;;;;;;;;;8325817;28;20382;-70
2021/04/03 17:05:48;;;;;;;98.63;31.85;;;;;;;;;;8325672;28;20604;-70
2021/04/03 17:09:52;;;;;;;84.50;31.75;;;;;;;;;;8324081;28;20397;-70
2021/04/03 17:13:57;;;;;;;46.60;16.13;;;;;;;;;;8325082;28;20041;-71
2021/04/03 17:18:02;;;;;;;32.60;13.57;;;;;;;;;;8324938;28;20397;-70
2021/04/03 17:22:07;;;;;;;33.58;14.25;;;;;;;;;;8322390;28;20386;-70
2021/04/03 17:26:13;;;;;;;51.75;23.58;;;;;;;;;;8324132;28;20366;-71
2021/04/03 17:30:18;;;;;;;31.27;11.65;;;;;;;;;;8325637;28;20316;-71
2021/04/03 17:34:22;;;;;;;11.38;4.90;;;;;;;;;;8323577;28;20455;-71
2021/04/03 17:38:27;;;;;;;18.65;6.32;;;;;;;;;;8323832;28;20346;-70
2021/04/03 17:42:31;;;;;;;15.50;7.38;;;;;;;;;;8324709;28;20583;-70
2021/04/03 17:46:36;;;;;;;34.42;13.50;;;;;;;;;;8323148;28;20044;-71
2021/04/03 17:50:41;;;;;;;40.63;16.67;;;;;;;;;;8321554;28;20440;-70
2021/04/03 17:54:45;;;;;;;94.35;27.02;;;;;;;;;;8321624;28;20378;-71
2021/04/03 17:58:49;;;;;;;146.60;37.72;;;;;;;;;;8321348;28;20107;-70
2021/04/03 18:02:55;;;;;;;64.65;25.77;;;;;;;;;;8320904;28;20469;-71
2021/04/03 18:06:59;;;;;;;81.70;28.35;;;;;;;;;;8325386;28;20393;-70
2021/04/03 18:11:04;;;;;;;69.57;23.52;;;;;;;;;;8322824;28;20458;-71
2021/04/03 18:15:09;;;;;;;126.20;37.47;;;;;;;;;;8322968;28;20489;-70
2021/04/03 18:19:13;;;;;;;81.15;27.45;;;;;;;;;;8323235;28;20328;-71
2021/04/03 18:23:20;;;;;;;116.60;34.92;;;;;;;;;;8323862;28;20366;-70
2021/04/03 18:27:25;;;;;;;128.25;31.17;;;;;;;;;;8323696;28;20493;-69
2021/04/03 18:31:29;;;;;;;32.33;11.00;;;;;;;;;;8322711;28;20335;-69
2021/04/03 18:35:35;;;;;;;34.28;14.40;;;;;;;;;;8322353;28;20378;-69
2021/04/03 18:39:41;;;;;;;37.30;15.45;;;;;;;;;;8321687;28;20480;-69
2021/04/03 18:43:45;;;;;;;77.60;29.17;;;;;;;;;;8322247;28;20052;-69
2021/04/03 18:47:50;;;;;;;53.50;23.77;;;;;;;;;;8322072;28;20056;-69
2021/04/03 18:51:55;;;;;;;72.20;27.75;;;;;;;;;;8320338;28;20413;-69
2021/04/03 18:55:59;;;;;;;58.92;25.38;;;;;;;;;;8322369;28;20336;-69
2021/04/03 19:00:05;;;;;;;48.70;22.05;;;;;;;;;;8322231;28;20074;-70
2021/04/03 19:04:10;;;;;;;49.00;21.48;;;;;;;;;;8327765;28;20470;-69
2021/04/03 19:08:16;;;;;;;83.63;32.55;;;;;;;;;;8327397;28;20044;-70
2021/04/03 19:12:23;;;;;;;55.00;25.40;;;;;;;;;;8328460;28;20383;-69
2021/04/03 19:16:28;;;;;;;19.60;10.00;;;;;;;;;;8328385;28;20490;-69
2021/04/03 19:20:33;;;;;;;25.20;12.65;;;;;;;;;;8329724;28;20482;-69
2021/04/03 19:24:40;;;;;;;33.13;14.30;;;;;;;;;;8326880;28;20489;-69
2021/04/03 19:28:51;;;;;;;31.50;14.63;;;;;;;;;;8328279;28;20382;-69
2021/04/03 19:32:55;;;;;;;32.55;15.65;;;;;;;;;;8328679;28;20685;-69
2021/04/03 19:37:00;;;;;;;32.22;12.15;;;;;;;;;;8328183;28;20383;-69
2021/04/03 19:41:05;;;;;;;32.70;13.07;;;;;;;;;;8327522;28;20408;-69
2021/04/03 19:45:10;;;;;;;27.70;11.50;;;;;;;;;;8326766;28;20385;-69
2021/04/03 19:49:18;;;;;;;34.78;14.10;;;;;;;;;;8327778;28;20383;-69
2021/04/03 19:53:21;;;;;;;33.85;14.85;;;;;;;;;;8326799;28;20459;-69
2021/04/03 19:57:24;;;;;;;31.38;15.15;;;;;;;;;;8328124;28;20390;-69
2021/04/03 20:01:29;;;;;;;28.02;11.88;;;;;;;;;;8326983;28;20390;-69
2021/04/03 20:05:33;;;;;;;27.65;12.50;;;;;;;;;;8325366;28;20471;-69
2021/04/03 20:09:38;;;;;;;31.35;14.13;;;;;;;;;;8308697;28;20402;-69
2021/04/03 20:13:43;;;;;;;30.70;12.43;;;;;;;;;;8324118;28;20375;-69
2021/04/03 20:17:48;;;;;;;32.38;11.93;;;;;;;;;;8327575;28;20075;-70
2021/04/03 20:21:54;;;;;;;26.77;11.20;;;;;;;;;;8327259;28;20370;-70
2021/04/03 20:25:57;;;;;;;28.95;13.32;;;;;;;;;;8323593;28;20478;-70
2021/04/03 20:30:04;;;;;;;37.95;15.95;;;;;;;;;;8325457;28;20417;-70
2021/04/03 20:34:09;;;;;;;27.75;12.13;;;;;;;;;;8325952;28;20359;-70
2021/04/03 20:38:16;;;;;;;32.17;13.77;;;;;;;;;;8326251;28;20040;-71
2021/04/03 20:42:21;;;;;;;29.23;11.73;;;;;;;;;;8328369;28;20443;-70
2021/04/03 20:46:25;;;;;;;21.55;10.88;;;;;;;;;;8323307;28;20484;-70
2021/04/03 20:50:30;;;;;;;27.98;11.70;;;;;;;;;;8324757;28;20490;-70
2021/04/03 20:54:33;;;;;;;23.98;11.23;;;;;;;;;;8326030;28;20048;-71
2021/04/03 20:58:37;;;;;;;34.58;13.88;;;;;;;;;;8325612;28;20351;-71
2021/04/03 21:02:42;;;;;;;28.88;11.38;;;;;;;;;;8326661;28;20070;-70
2021/04/03 21:06:46;;;;;;;28.38;11.30;;;;;;;;;;8323633;28;20070;-71
2021/04/03 21:10:51;;;;;;;27.48;10.43;;;;;;;;;;8325938;28;20359;-70
2021/04/03 21:14:55;;;;;;;38.80;14.23;;;;;;;;;;8324777;28;20093;-70
2021/04/03 21:18:59;;;;;;;39.15;12.98;;;;;;;;;;8323814;28;20377;-69
2021/04/03 21:23:02;;;;;;;36.72;13.63;;;;;;;;;;8324997;28;20062;-70
2021/04/03 21:27:07;;;;;;;45.35;16.23;;;;;;;;;;8324057;28;20493;-70
2021/04/03 21:31:11;;;;;;;53.22;19.65;;;;;;;;;;8323313;28;20465;-70
2021/04/03 21:35:16;;;;;;;52.33;21.13;;;;;;;;;;8325280;28;20470;-70
2021/04/03 21:39:21;;;;;;;42.00;15.00;;;;;;;;;;8325824;28;20374;-69
2021/04/03 21:43:25;;;;;;;43.90;14.88;;;;;;;;;;8323548;28;20485;-69
2021/04/03 21:47:30;;;;;;;41.33;15.48;;;;;;;;;;8324182;28;20346;-70
2021/04/03 21:51:34;;;;;;;48.03;15.77;;;;;;;;;;8324778;28;20070;-68
2021/04/03 21:55:38;;;;;;;45.50;17.42;;;;;;;;;;8324434;28;20040;-68
2021/04/03 21:59:41;;;;;;;45.50;17.35;;;;;;;;;;8322580;28;20450;-68
2021/04/03 22:03:45;;;;;;;50.30;16.90;;;;;;;;;;8322086;28;20479;-68
2021/04/03 22:07:48;;;;;;;41.47;15.38;;;;;;;;;;8323532;28;20556;-68
2021/04/03 22:11:58;;;;;;;47.03;17.85;;;;;;;;;;8324502;28;20355;-68
2021/04/03 22:16:03;;;;;;;80.15;21.58;;;;;;;;;;8322862;28;20473;-69
2021/04/03 22:20:07;;;;;;;47.38;17.60;;;;;;;;;;8323414;28;20374;-68
2021/04/03 22:24:12;;;;;;;33.47;15.07;;;;;;;;;;8323171;28;20356;-68
2021/04/03 22:28:16;;;;;;;37.33;14.73;;;;;;;;;;8324727;28;20338;-69
2021/04/03 22:32:21;;;;;;;39.85;14.73;;;;;;;;;;8322589;28;20462;-69
2021/04/03 22:36:26;;;;;;;38.25;15.30;;;;;;;;;;8325514;28;20479;-68
2021/04/03 22:40:31;;;;;;;35.40;13.30;;;;;;;;;;8329918;28;20056;-69
2021/04/03 22:44:34;;;;;;;32.70;14.80;;;;;;;;;;8327755;28;20350;-69
2021/04/03 22:48:38;;;;;;;37.63;15.05;;;;;;;;;;8330056;28;20508;-69
2021/04/03 22:52:43;;;;;;;44.55;15.00;;;;;;;;;;8329779;28;20059;-68
2021/04/03 22:56:48;;;;;;;46.05;15.70;;;;;;;;;;8328985;28;20044;-68
2021/04/03 23:00:51;;;;;;;47.92;16.17;;;;;;;;;;8328843;28;20371;-68
2021/04/03 23:04:55;;;;;;;43.60;17.65;;;;;;;;;;8328741;28;20496;-67
2021/04/03 23:09:00;;;;;;;53.70;20.27;;;;;;;;;;8331574;28;20501;-69
2021/04/03 23:13:05;;;;;;;40.40;18.52;;;;;;;;;;8329961;28;20040;-69
2021/04/03 23:17:09;;;;;;;40.53;15.68;;;;;;;;;;8328968;28;20466;-68
2021/04/03 23:21:13;;;;;;;52.15;21.10;;;;;;;;;;8330599;28;20078;-68
2021/04/03 23:25:17;;;;;;;51.60;20.20;;;;;;;;;;8328798;28;20509;-68
2021/04/03 23:29:21;;;;;;;66.40;24.33;;;;;;;;;;8328139;28;20450;-68
2021/04/03 23:33:25;;;;;;;77.13;26.85;;;;;;;;;;8328362;28;20438;-69
2021/04/03 23:37:29;;;;;;;70.53;27.13;;;;;;;;;;8310585;28;20356;-69
2021/04/03 23:41:35;;;;;;;60.10;24.88;;;;;;;;;;8330763;28;20546;-68
2021/04/03 23:45:40;;;;;;;66.55;26.30;;;;;;;;;;8327204;28;20522;-68
2021/04/03 23:49:44;;;;;;;57.60;24.45;;;;;;;;;;8327423;28;20443;-69
2021/04/03 23:53:49;;;;;;;61.40;24.17;;;;;;;;;;8327893;28;20462;-68
2021/04/03 23:57:53;;;;;;;59.22;24.25;;;;;;;;;;8326211;28;20032;-69
